Time;durP1;ratioP1;P1;durP2;ratioP2;P2;SDS_P1;SDS_P2;PMS_P1;PMS_P2;Temp;Humidity;BMP_temperature;BMP_pressure;BME280_temperature;BME280_humidity;BME280_pressure;Samples;Min_cycle;Max_cycle;Signal;HPM_P1;HPM_P2
2023/11/04 00:00:19;;;;;;;9.32;3.40;;;9.70;99.90;;;;;;2062589;28;20515;-78
2023/11/04 00:01:20;;;;;;;9.68;3.40;;;9.70;99.90;;;;;;2063582;28;20345;-78
2023/11/04 00:02:21;;;;;;;9.07;2.72;;;9.60;99.90;;;;;;2067471;28;20373;-78
2023/11/04 00:03:21;;;;;;;14.35;3.20;;;9.60;99.90;;;;;;2062964;28;20033;-79
2023/11/04 00:04:22;;;;;;;9.18;3.20;;;9.60;99.90;;;;;;2062502;28;20225;-77
2023/11/04 00:05:22;;;;;;;9.82;3.15;;;9.60;99.90;;;;;;2062391;28;20038;-77
2023/11/04 00:06:23;;;;;;;8.73;2.80;;;9.60;99.90;;;;;;2055903;28;20043;-79
2023/11/04 00:07:24;;;;;;;8.77;2.70;;;9.60;99.90;;;;;;2053770;28;20109;-77
2023/11/04 00:08:26;;;;;;;8.00;2.92;;;9.60;99.90;;;;;;2066800;28;20044;-77
2023/11/04 00:09:26;;;;;;;12.35;3.25;;;9.60;99.90;;;;;;2064898;28;20049;-77
2023/11/04 00:10:27;;;;;;;9.40;3.28;;;9.60;99.90;;;;;;2061215;28;20038;-77
2023/11/04 00:11:27;;;;;;;10.00;3.00;;;9.60;99.90;;;;;;2051627;28;20023;-77
2023/11/04 00:12:28;;;;;;;10.65;3.08;;;9.60;99.90;;;;;;2056535;28;20030;-77
2023/11/04 00:13:28;;;;;;;9.85;3.13;;;9.60;99.90;;;;;;2066699;28;20109;-78
2023/11/04 00:14:29;;;;;;;10.23;3.22;;;9.60;99.90;;;;;;2063598;28;20380;-80
2023/11/04 00:15:29;;;;;;;11.98;2.90;;;9.60;99.90;;;;;;2058845;28;20034;-78
2023/11/04 00:16:30;;;;;;;8.85;2.95;;;9.60;99.90;;;;;;2062821;28;20489;-79
2023/11/04 00:17:31;;;;;;;12.23;3.22;;;9.60;99.90;;;;;;2058406;28;20870;-78
2023/11/04 00:18:31;;;;;;;12.00;2.72;;;9.60;99.90;;;;;;2061541;28;20050;-78
2023/11/04 00:19:32;;;;;;;10.45;3.50;;;9.60;99.90;;;;;;2065798;28;20357;-78
2023/11/04 00:20:32;;;;;;;12.20;3.20;;;9.50;99.90;;;;;;2065865;28;20057;-79
2023/11/04 00:21:33;;;;;;;8.68;3.17;;;9.50;99.90;;;;;;2063046;28;20030;-78
2023/11/04 00:22:34;;;;;;;10.63;3.20;;;9.50;99.90;;;;;;2065846;28;20048;-78
2023/11/04 00:23:35;;;;;;;9.43;3.10;;;9.50;99.90;;;;;;2066367;28;20033;-79
2023/11/04 00:24:36;;;;;;;9.73;3.22;;;9.50;99.90;;;;;;2052245;28;20023;-78
2023/11/04 00:25:37;;;;;;;10.18;3.30;;;9.50;99.90;;;;;;2057352;28;20377;-79
2023/11/04 00:26:38;;;;;;;9.75;3.17;;;9.50;99.90;;;;;;2058205;28;20030;-78
2023/11/04 00:27:38;;;;;;;10.00;3.38;;;9.50;99.90;;;;;;2062295;28;20022;-79
2023/11/04 00:28:39;;;;;;;9.20;3.03;;;9.50;99.90;;;;;;2063993;28;20034;-79
2023/11/04 00:29:39;;;;;;;8.77;2.92;;;9.50;99.90;;;;;;2068165;28;20037;-78
2023/11/04 00:30:40;;;;;;;10.80;3.35;;;9.50;99.90;;;;;;2068085;28;20543;-77
2023/11/04 00:31:40;;;;;;;11.25;3.50;;;9.50;99.90;;;;;;2063604;28;20400;-79
2023/11/04 00:32:41;;;;;;;10.20;3.38;;;9.50;99.90;;;;;;2067676;28;20064;-78
2023/11/04 00:33:42;;;;;;;10.15;3.08;;;9.50;99.90;;;;;;2055574;28;20054;-75
2023/11/04 00:34:42;;;;;;;8.43;3.10;;;9.50;99.90;;;;;;2053199;28;20023;-77
2023/11/04 00:35:43;;;;;;;11.80;3.40;;;9.50;99.90;;;;;;2051682;28;20030;-77
2023/11/04 00:36:44;;;;;;;9.63;3.08;;;9.50;99.90;;;;;;2051834;28;20023;-77
2023/11/04 00:37:46;;;;;;;11.13;3.53;;;9.50;99.90;;;;;;2059997;28;20045;-76
2023/11/04 00:38:46;;;;;;;8.85;3.30;;;9.50;99.90;;;;;;2064384;28;20026;-78
2023/11/04 00:39:47;;;;;;;8.52;3.20;;;9.50;99.90;;;;;;2057104;28;20525;-77
2023/11/04 00:40:48;;;;;;;9.30;2.97;;;9.40;99.90;;;;;;2056301;28;20051;-77
2023/11/04 00:41:48;;;;;;;7.43;2.80;;;9.40;99.90;;;;;;2068483;28;20038;-79
2023/11/04 00:42:49;;;;;;;10.15;2.80;;;9.40;99.90;;;;;;2068501;28;20044;-79
2023/11/04 00:43:50;;;;;;;8.93;2.97;;;9.40;99.90;;;;;;2068450;28;20519;-80
2023/11/04 00:44:51;;;;;;;9.05;2.80;;;9.40;99.90;;;;;;2064184;28;20027;-79
2023/11/04 00:45:52;;;;;;;11.10;3.03;;;9.40;99.90;;;;;;2059673;28;20496;-79
2023/11/04 00:46:53;;;;;;;10.45;3.15;;;9.40;99.90;;;;;;2059233;28;20018;-78
2023/11/04 00:47:53;;;;;;;12.68;3.40;;;9.40;99.90;;;;;;2067351;28;20018;-78
2023/11/04 00:48:54;;;;;;;8.73;3.08;;;9.40;99.90;;;;;;2068149;28;20049;-79
2023/11/04 00:49:55;;;;;;;10.35;3.03;;;9.40;99.90;;;;;;2059593;28;20564;-79
2023/11/04 00:50:56;;;;;;;9.13;3.10;;;9.40;99.90;;;;;;2051085;28;20042;-78
2023/11/04 00:51:56;;;;;;;11.20;3.08;;;9.40;99.90;;;;;;2049100;28;20057;-78
2023/11/04 00:52:57;;;;;;;11.88;2.80;;;9.40;99.90;;;;;;2059158;28;20089;-79
2023/11/04 00:53:58;;;;;;;7.65;2.85;;;9.30;99.90;;;;;;2065168;28;20032;-77
2023/11/04 00:54:58;;;;;;;8.48;3.20;;;9.30;99.90;;;;;;2065969;28;20488;-78
2023/11/04 00:55:59;;;;;;;11.20;3.17;;;9.30;99.90;;;;;;2065606;28;20022;-78
2023/11/04 00:57:00;;;;;;;10.45;3.50;;;9.30;99.90;;;;;;2060868;28;20026;-77
2023/11/04 00:58:01;;;;;;;10.07;2.90;;;9.30;99.90;;;;;;2059217;28;20512;-78
2023/11/04 00:59:01;;;;;;;10.77;3.15;;;9.30;99.90;;;;;;2054323;28;20604;-77
2023/11/04 01:00:04;;;;;;;9.77;2.90;;;9.30;99.90;;;;;;2064105;28;20489;-79
2023/11/04 01:01:07;;;;;;;9.90;3.00;;;9.30;99.90;;;;;;2064142;28;20030;-76
2023/11/04 01:02:10;;;;;;;9.00;2.88;;;9.30;99.90;;;;;;2064786;28;20030;-78
2023/11/04 01:03:10;;;;;;;9.07;2.95;;;9.30;99.90;;;;;;2063192;28;20116;-78
2023/11/04 01:04:11;;;;;;;11.80;3.05;;;9.30;99.90;;;;;;2058994;28;20583;-77
2023/11/04 01:05:11;;;;;;;11.48;3.30;;;9.30;99.90;;;;;;2058952;28;20026;-77
2023/11/04 01:06:12;;;;;;;7.68;2.83;;;9.30;99.90;;;;;;2050918;28;20038;-78
2023/11/04 01:07:13;;;;;;;10.35;3.10;;;9.30;99.90;;;;;;2055913;28;20027;-77
2023/11/04 01:08:14;;;;;;;8.00;3.10;;;9.30;99.90;;;;;;2050707;28;20497;-76
2023/11/04 01:09:15;;;;;;;7.90;3.55;;;9.30;99.90;;;;;;2051332;28;20034;-77
2023/11/04 01:10:16;;;;;;;10.85;3.20;;;9.30;99.90;;;;;;2066871;28;20468;-77
2023/11/04 01:11:19;;;;;;;9.43;3.10;;;9.30;99.90;;;;;;2055489;28;20071;-78
2023/11/04 01:12:20;;;;;;;9.32;2.85;;;9.30;99.90;;;;;;2048539;28;20026;-78
2023/11/04 01:13:20;;;;;;;7.78;3.15;;;9.30;99.90;;;;;;2059158;28;20061;-78
2023/11/04 01:14:21;;;;;;;9.75;2.95;;;9.30;99.90;;;;;;2059250;28;20105;-77
2023/11/04 01:15:23;;;;;;;8.77;2.72;;;9.30;99.90;;;;;;2059126;28;20030;-78
2023/11/04 01:16:24;;;;;;;10.68;3.10;;;9.40;99.90;;;;;;2063298;28;20058;-77
2023/11/04 01:17:24;;;;;;;12.70;2.97;;;9.40;99.90;;;;;;2067218;28;20038;-77
2023/11/04 01:18:25;;;;;;;7.43;3.10;;;9.40;99.90;;;;;;2067946;28;20041;-78
2023/11/04 01:19:25;;;;;;;8.13;2.97;;;9.40;99.90;;;;;;2067825;28;20117;-79
2023/11/04 01:20:28;;;;;;;9.98;2.90;;;9.40;99.90;;;;;;2065805;28;20036;-78
2023/11/04 01:21:29;;;;;;;11.13;3.13;;;9.40;99.90;;;;;;2065069;28;20038;-78
2023/11/04 01:22:29;;;;;;;10.25;3.10;;;9.40;99.90;;;;;;2067277;28;20034;-79
2023/11/04 01:23:30;;;;;;;8.80;2.80;;;9.40;99.90;;;;;;2063066;28;20034;-78
2023/11/04 01:24:30;;;;;;;13.73;3.42;;;9.40;99.90;;;;;;2055094;28;20078;-79
2023/11/04 01:25:31;;;;;;;9.95;2.95;;;9.40;99.90;;;;;;2058900;28;20137;-79
2023/11/04 01:26:31;;;;;;;8.43;2.92;;;9.50;99.90;;;;;;2063168;28;20101;-79
2023/11/04 01:27:32;;;;;;;10.50;2.90;;;9.40;99.90;;;;;;2064719;28;20076;-78
2023/11/04 01:28:33;;;;;;;9.18;3.35;;;9.40;99.90;;;;;;2057410;28;20034;-77
2023/11/04 01:29:33;;;;;;;7.97;2.72;;;9.50;99.90;;;;;;2047005;28;20031;-78
2023/11/04 01:30:34;;;;;;;11.23;3.10;;;9.50;99.90;;;;;;2051013;28;23876;-78
2023/11/04 01:31:34;;;;;;;12.60;2.80;;;9.50;99.90;;;;;;2058970;28;20030;-77
2023/11/04 01:32:35;;;;;;;9.18;2.63;;;9.50;99.90;;;;;;2067128;28;20506;-79
2023/11/04 01:33:36;;;;;;;9.45;2.83;;;9.50;99.90;;;;;;2067002;28;20340;-78
2023/11/04 01:34:36;;;;;;;9.68;2.75;;;9.50;99.90;;;;;;2050925;28;20035;-78
2023/11/04 01:35:37;;;;;;;8.88;2.88;;;9.50;99.90;;;;;;2048076;28;20095;-78
2023/11/04 01:36:39;;;;;;;8.50;3.03;;;9.50;99.90;;;;;;2064006;28;20026;-77
2023/11/04 01:37:40;;;;;;;9.48;2.85;;;9.50;99.90;;;;;;2064080;28;20496;-78
2023/11/04 01:38:41;;;;;;;7.25;2.70;;;9.50;99.90;;;;;;2062865;28;20076;-76
2023/11/04 01:39:42;;;;;;;5.85;2.60;;;9.50;99.90;;;;;;2058588;28;20551;-78
2023/11/04 01:40:51;;;;;;;7.50;2.80;;;9.40;99.90;;;;;;2059221;28;20030;-78
2023/11/04 01:41:51;;;;;;;8.45;2.83;;;9.40;99.90;;;;;;2060498;28;20030;-78
2023/11/04 01:42:52;;;;;;;9.52;2.92;;;9.40;99.90;;;;;;2067469;28;20026;-78
2023/11/04 01:43:53;;;;;;;7.90;2.70;;;9.40;99.90;;;;;;2066620;28;20108;-78
2023/11/04 01:44:53;;;;;;;9.13;2.55;;;9.40;99.90;;;;;;2067045;28;20561;-77
2023/11/04 01:46:23;;;;;;;8.95;3.00;;;9.40;99.90;;;;;;2058942;28;20057;-78
2023/11/04 01:47:24;;;;;;;7.90;2.65;;;9.40;99.90;;;;;;2059059;28;20041;-78
2023/11/04 01:48:25;;;;;;;8.38;2.67;;;9.30;99.90;;;;;;2057502;28;20093;-78
2023/11/04 01:49:27;;;;;;;11.07;2.80;;;9.30;99.90;;;;;;2055036;28;20320;-79
2023/11/04 01:50:28;;;;;;;6.50;2.65;;;9.30;99.90;;;;;;2056897;28;20030;-78
2023/11/04 01:51:29;;;;;;;10.10;2.70;;;9.30;99.90;;;;;;2067193;28;20121;-78
2023/11/04 01:52:31;;;;;;;7.75;2.60;;;9.30;99.90;;;;;;2065866;28;20030;-78
2023/11/04 01:53:33;;;;;;;8.52;2.75;;;9.30;99.90;;;;;;2063364;28;20387;-77
2023/11/04 01:54:35;;;;;;;9.23;2.70;;;9.30;99.90;;;;;;2066001;28;20037;-78
2023/11/04 01:55:36;;;;;;;9.27;2.80;;;9.30;99.90;;;;;;2065152;28;20517;-78
2023/11/04 01:56:40;;;;;;;6.35;2.55;;;9.30;99.90;;;;;;2052254;28;20058;-77
2023/11/04 01:57:41;;;;;;;13.43;3.10;;;9.30;99.90;;;;;;2059443;28;20030;-77
2023/11/04 01:58:45;;;;;;;10.88;3.20;;;9.30;99.90;;;;;;2063535;28;20033;-77
2023/11/04 01:59:46;;;;;;;7.53;2.53;;;9.30;99.90;;;;;;2059087;28;20492;-76
2023/11/04 02:00:48;;;;;;;7.45;2.70;;;9.30;99.90;;;;;;2054885;28;20113;-77
2023/11/04 02:01:49;;;;;;;7.68;2.70;;;9.30;99.90;;;;;;2050868;28;20063;-77
2023/11/04 02:02:50;;;;;;;8.55;2.70;;;9.20;99.90;;;;;;2053451;28;20034;-77
2023/11/04 02:03:51;;;;;;;7.65;2.90;;;9.30;99.90;;;;;;2051054;28;20027;-76
2023/11/04 02:04:52;;;;;;;8.52;2.67;;;9.30;99.90;;;;;;2056963;28;20031;-77
2023/11/04 02:05:53;;;;;;;9.07;3.20;;;9.30;99.90;;;;;;2053235;28;20037;-77
2023/11/04 02:06:53;;;;;;;12.52;2.97;;;9.30;99.90;;;;;;2057883;28;20022;-78
2023/11/04 02:07:54;;;;;;;11.00;2.80;;;9.30;99.90;;;;;;2055880;28;20018;-78
2023/11/04 02:09:00;;;;;;;5.90;2.50;;;9.20;99.90;;;;;;2054808;28;20030;-80
2023/11/04 02:10:01;;;;;;;7.30;2.50;;;9.20;99.90;;;;;;2050413;28;20122;-78
2023/11/04 02:11:03;;;;;;;8.35;2.80;;;9.20;99.90;;;;;;2057132;28;20394;-78
2023/11/04 02:12:04;;;;;;;8.65;2.63;;;9.20;99.90;;;;;;2058697;28;20072;-79
2023/11/04 02:13:05;;;;;;;7.93;2.60;;;9.20;99.90;;;;;;2058856;28;20085;-79
2023/11/04 02:14:09;;;;;;;7.68;2.63;;;9.20;99.90;;;;;;2067727;28;20539;-78
2023/11/04 02:15:15;;;;;;;6.25;2.50;;;9.20;99.90;;;;;;2064581;28;20388;-78
2023/11/04 02:16:16;;;;;;;9.32;2.80;;;9.20;99.90;;;;;;2067045;28;20037;-78
2023/11/04 02:17:18;;;;;;;10.98;2.83;;;9.20;99.90;;;;;;2062726;28;20029;-78
2023/11/04 02:18:18;;;;;;;7.70;2.70;;;9.20;99.90;;;;;;2059095;28;20366;-79
2023/11/04 02:19:19;;;;;;;8.68;2.53;;;9.20;99.90;;;;;;2063236;28;20127;-80
2023/11/04 02:20:21;;;;;;;8.88;2.90;;;9.20;99.90;;;;;;2062815;28;20045;-78
2023/11/04 02:21:23;;;;;;;7.07;2.72;;;9.20;99.90;;;;;;2059027;28;20435;-78
2023/11/04 02:22:23;;;;;;;6.93;2.55;;;9.20;99.90;;;;;;2063038;28;20041;-78
2023/11/04 02:23:26;;;;;;;8.15;2.63;;;9.20;99.90;;;;;;2059732;28;20485;-78
2023/11/04 02:24:26;;;;;;;6.05;2.35;;;9.20;99.90;;;;;;2067111;28;20030;-78
2023/11/04 02:25:34;;;;;;;10.02;2.65;;;9.20;99.90;;;;;;2066102;28;20054;-78
2023/11/04 02:26:35;;;;;;;8.82;2.50;;;9.20;99.90;;;;;;2063606;28;20034;-79
2023/11/04 02:27:35;;;;;;;7.53;2.60;;;9.20;99.90;;;;;;2050782;28;20437;-78
2023/11/04 02:28:36;;;;;;;9.30;2.50;;;9.20;99.90;;;;;;2056590;28;20461;-78
2023/11/04 02:29:38;;;;;;;8.70;2.45;;;9.20;99.90;;;;;;2054790;28;20035;-78
2023/11/04 02:30:39;;;;;;;10.05;2.60;;;9.20;99.90;;;;;;2063551;28;20511;-79
2023/11/04 02:31:39;;;;;;;6.13;2.20;;;9.20;99.90;;;;;;2064892;28;20033;-79
2023/11/04 02:32:40;;;;;;;10.25;3.10;;;9.20;99.90;;;;;;2066857;28;20029;-71
2023/11/04 02:33:41;;;;;;;7.05;2.70;;;9.20;99.90;;;;;;2065399;28;20041;-79
2023/11/04 02:34:41;;;;;;;8.55;2.42;;;9.20;99.90;;;;;;2062345;28;20049;-73
2023/11/04 02:35:45;;;;;;;8.45;2.50;;;9.20;99.90;;;;;;2064774;28;20455;-82
2023/11/04 02:36:46;;;;;;;10.07;2.70;;;9.20;99.90;;;;;;2066966;28;20029;-78
2023/11/04 02:37:47;;;;;;;6.95;2.53;;;9.20;99.90;;;;;;2067593;28;20568;-78
2023/11/04 02:38:48;;;;;;;5.80;2.20;;;9.20;99.90;;;;;;2059610;28;20472;-78
2023/11/04 02:39:48;;;;;;;7.32;2.30;;;9.20;99.90;;;;;;2061941;28;20027;-78
2023/11/04 02:40:49;;;;;;;9.73;2.50;;;9.20;99.90;;;;;;2066546;28;20026;-79
2023/11/04 02:41:50;;;;;;;7.50;2.42;;;9.20;99.90;;;;;;2058879;28;20034;-79
2023/11/04 02:42:50;;;;;;;8.15;2.63;;;9.20;99.90;;;;;;2066725;28;20074;-79
2023/11/04 02:43:51;;;;;;;6.13;2.38;;;9.10;99.90;;;;;;2058488;28;20370;-78
2023/11/04 02:44:51;;;;;;;9.23;2.70;;;9.10;99.90;;;;;;2058774;28;20081;-79
2023/11/04 02:45:52;;;;;;;7.50;2.33;;;9.20;99.90;;;;;;2058355;28;20424;-78
2023/11/04 02:46:53;;;;;;;9.02;2.35;;;9.10;99.90;;;;;;2054227;28;20495;-78
2023/11/04 02:47:54;;;;;;;5.85;2.40;;;9.20;99.90;;;;;;2042597;28;20111;-77
2023/11/04 02:48:54;;;;;;;6.45;2.20;;;9.10;99.90;;;;;;2046746;28;20062;-76
2023/11/04 02:49:55;;;;;;;7.43;2.25;;;9.20;99.90;;;;;;2054631;28;20059;-76
2023/11/04 02:50:56;;;;;;;7.88;2.40;;;9.10;99.90;;;;;;2061629;28;20038;-77
2023/11/04 02:51:56;;;;;;;9.45;2.63;;;9.10;99.90;;;;;;2061703;28;20087;-79
2023/11/04 02:52:57;;;;;;;7.85;2.63;;;9.10;99.90;;;;;;2061873;28;20044;-77
2023/11/04 02:53:57;;;;;;;7.93;2.40;;;9.10;99.90;;;;;;2062568;28;20037;-77
2023/11/04 02:54:58;;;;;;;9.60;2.20;;;9.10;99.90;;;;;;2054441;28;20396;-77
2023/11/04 02:55:59;;;;;;;10.25;3.03;;;9.10;99.90;;;;;;2055287;28;20262;-77
2023/11/04 02:56:59;;;;;;;7.97;2.10;;;9.10;99.90;;;;;;2062303;28;20077;-77
2023/11/04 02:58:00;;;;;;;9.98;2.30;;;9.10;99.90;;;;;;2065636;28;20026;-78
2023/11/04 02:59:01;;;;;;;7.18;2.30;;;9.10;99.90;;;;;;2054575;28;20102;-79
2023/11/04 03:00:01;;;;;;;9.95;2.53;;;9.10;99.90;;;;;;2050295;28;20037;-79
2023/11/04 03:01:03;;;;;;;9.82;2.38;;;9.20;99.90;;;;;;2050350;28;20078;-78
2023/11/04 03:02:06;;;;;;;8.02;2.40;;;9.20;99.90;;;;;;2045299;28;20063;-77
2023/11/04 03:03:07;;;;;;;10.60;2.90;;;9.20;99.90;;;;;;2049465;28;20031;-78
2023/11/04 03:04:10;;;;;;;6.80;2.22;;;9.10;99.90;;;;;;2053011;28;20509;-77
2023/11/04 03:05:11;;;;;;;8.93;2.40;;;9.10;99.90;;;;;;2065832;28;20037;-74
2023/11/04 03:06:23;;;;;;;8.63;2.50;;;9.10;99.90;;;;;;2061408;28;20116;-78
2023/11/04 03:07:24;;;;;;;6.97;2.53;;;9.10;99.90;;;;;;2059374;28;20092;-78
2023/11/04 03:08:26;;;;;;;9.23;2.55;;;9.10;99.90;;;;;;2068138;28;20476;-78
2023/11/04 03:09:26;;;;;;;8.75;2.40;;;9.10;99.90;;;;;;2066995;28;20109;-77
2023/11/04 03:10:27;;;;;;;8.60;2.38;;;9.10;99.90;;;;;;2066402;28;20289;-77
2023/11/04 03:11:27;;;;;;;6.20;2.33;;;9.10;99.90;;;;;;2065786;28;20032;-76
2023/11/04 03:12:28;;;;;;;7.05;2.20;;;9.10;99.90;;;;;;2062610;28;20034;-77
2023/11/04 03:13:29;;;;;;;5.97;2.22;;;9.10;99.90;;;;;;2063953;28;20038;-78
2023/11/04 03:14:29;;;;;;;7.35;2.47;;;9.10;99.90;;;;;;2062425;28;20138;-77
2023/11/04 03:15:30;;;;;;;8.15;2.30;;;9.20;99.90;;;;;;2066466;28;20037;-78
2023/11/04 03:16:30;;;;;;;6.85;2.40;;;9.20;99.90;;;;;;2058620;28;20073;-77
2023/11/04 03:17:31;;;;;;;9.90;2.47;;;9.20;99.90;;;;;;2046335;28;20031;-78
2023/11/04 03:18:32;;;;;;;7.35;2.03;;;9.10;99.90;;;;;;2050023;28;20524;-77
2023/11/04 03:19:33;;;;;;;5.20;2.10;;;9.10;99.90;;;;;;2057284;28;20045;-78
2023/11/04 03:20:33;;;;;;;11.85;2.63;;;9.10;99.90;;;;;;2059005;28;20033;-79
2023/11/04 03:21:34;;;;;;;10.82;2.50;;;9.10;99.90;;;;;;2063470;28;20045;-78
2023/11/04 03:22:35;;;;;;;8.90;2.53;;;9.10;99.90;;;;;;2066334;28;20525;-78
2023/11/04 03:23:35;;;;;;;6.22;2.30;;;9.10;99.90;;;;;;2056785;28;20175;-78
2023/11/04 03:24:36;;;;;;;8.82;2.13;;;9.10;99.90;;;;;;2050433;28;20023;-78
2023/11/04 03:25:37;;;;;;;10.73;2.53;;;9.10;99.90;;;;;;2058315;28;20037;-78
2023/11/04 03:26:38;;;;;;;5.90;2.30;;;9.10;99.90;;;;;;2058606;28;20109;-78
2023/11/04 03:27:39;;;;;;;6.55;2.25;;;9.10;99.90;;;;;;2058204;28;20042;-78
2023/11/04 03:28:40;;;;;;;9.07;2.50;;;9.00;99.90;;;;;;2066303;28;20030;-76
2023/11/04 03:29:40;;;;;;;7.97;2.45;;;9.10;99.90;;;;;;2064084;28;20536;-77
2023/11/04 03:30:41;;;;;;;9.10;2.40;;;9.10;99.90;;;;;;2063118;28;20094;-77
2023/11/04 03:31:42;;;;;;;11.15;2.50;;;9.00;99.90;;;;;;2052334;28;20031;-77
2023/11/04 03:32:42;;;;;;;8.57;2.25;;;9.00;99.90;;;;;;2058101;28;20034;-77
2023/11/04 03:33:44;;;;;;;7.72;2.50;;;9.00;99.90;;;;;;2050208;28;20034;-78
2023/11/04 03:34:44;;;;;;;7.13;2.40;;;9.00;99.90;;;;;;2054164;28;20661;-78
2023/11/04 03:35:45;;;;;;;6.85;2.30;;;9.00;99.90;;;;;;2049994;28;20030;-78
2023/11/04 03:36:45;;;;;;;8.65;2.70;;;9.00;99.90;;;;;;2058120;28;20434;-78
2023/11/04 03:37:46;;;;;;;5.35;2.20;;;8.90;99.90;;;;;;2065666;28;20033;-78
2023/11/04 03:38:46;;;;;;;7.35;2.20;;;9.00;99.90;;;;;;2066141;28;20092;-78
2023/11/04 03:39:47;;;;;;;7.63;2.60;;;9.00;99.90;;;;;;2060933;28;20304;-78
2023/11/04 03:40:48;;;;;;;8.23;2.67;;;9.00;99.90;;;;;;2054115;28;20035;-78
2023/11/04 03:41:49;;;;;;;9.80;2.40;;;9.00;99.90;;;;;;2061911;28;20275;-78
2023/11/04 03:42:50;;;;;;;8.10;2.70;;;9.00;99.90;;;;;;2065930;28;20600;-78
2023/11/04 03:43:50;;;;;;;8.77;2.55;;;9.00;99.90;;;;;;2061453;28;20034;-78
2023/11/04 03:44:51;;;;;;;9.93;2.53;;;9.00;99.90;;;;;;2053589;28;20026;-78
2023/11/04 03:45:51;;;;;;;7.60;2.20;;;9.00;99.90;;;;;;2058262;28;20444;-77
2023/11/04 03:46:54;;;;;;;7.50;2.50;;;9.00;99.90;;;;;;2063824;28;20034;-77
2023/11/04 03:47:57;;;;;;;7.18;2.40;;;9.00;99.90;;;;;;2067419;28;20026;-76
2023/11/04 03:48:58;;;;;;;7.82;2.25;;;9.00;99.90;;;;;;2059007;28;20126;-77
2023/11/04 03:49:58;;;;;;;4.90;2.20;;;8.90;99.90;;;;;;2063159;28;20052;-77
2023/11/04 03:50:59;;;;;;;8.75;2.33;;;8.90;99.90;;;;;;2060537;28;20362;-77
2023/11/04 03:51:59;;;;;;;6.18;2.33;;;8.90;99.90;;;;;;2062467;28;20504;-76
2023/11/04 03:53:00;;;;;;;6.68;2.40;;;8.80;99.90;;;;;;2062196;28;20048;-78
2023/11/04 03:54:00;;;;;;;6.97;1.95;;;8.80;99.90;;;;;;2058262;28;20212;-78
2023/11/04 03:55:01;;;;;;;10.10;2.60;;;8.80;99.90;;;;;;2058137;28;20105;-77
2023/11/04 03:56:02;;;;;;;6.82;2.13;;;8.70;99.90;;;;;;2066974;28;20034;-77
2023/11/04 03:57:02;;;;;;;5.10;2.10;;;8.70;99.90;;;;;;2066298;28;20034;-77
2023/11/04 03:58:03;;;;;;;6.95;2.13;;;8.60;99.90;;;;;;2053881;28;20027;-77
2023/11/04 03:59:03;;;;;;;6.95;2.03;;;8.60;99.90;;;;;;2057938;28;20034;-77
2023/11/04 04:00:05;;;;;;;8.00;2.40;;;8.60;99.90;;;;;;2066326;28;20037;-77
2023/11/04 04:01:12;;;;;;;7.10;2.20;;;8.60;99.90;;;;;;2066147;28;20036;-77
2023/11/04 04:02:13;;;;;;;7.60;2.72;;;8.60;99.90;;;;;;2062608;28;20443;-77
2023/11/04 04:03:14;;;;;;;5.90;2.13;;;8.60;99.90;;;;;;2066540;28;20034;-77
2023/11/04 04:04:16;;;;;;;8.05;2.40;;;8.60;99.90;;;;;;2060910;28;20101;-76
2023/11/04 04:05:17;;;;;;;8.32;2.33;;;8.60;99.90;;;;;;2063514;28;20302;-76
2023/11/04 04:06:18;;;;;;;9.07;2.55;;;8.60;99.90;;;;;;2055203;28;20037;-78
2023/11/04 04:07:18;;;;;;;8.10;2.42;;;8.60;99.90;;;;;;2056527;28;20393;-77
2023/11/04 04:08:19;;;;;;;8.25;2.28;;;8.60;99.90;;;;;;2062884;28;20035;-77
2023/11/04 04:09:19;;;;;;;7.53;2.38;;;8.50;99.90;;;;;;2063335;28;20026;-77
2023/11/04 04:10:20;;;;;;;4.95;2.20;;;8.50;99.90;;;;;;2061177;28;20468;-77
2023/11/04 04:11:22;;;;;;;5.32;2.10;;;8.50;99.90;;;;;;2065997;28;20099;-77
2023/11/04 04:12:23;;;;;;;7.43;2.20;;;8.50;99.90;;;;;;2062768;28;20041;-77
2023/11/04 04:13:23;;;;;;;6.32;2.42;;;8.50;99.90;;;;;;2062087;28;20385;-76
2023/11/04 04:14:24;;;;;;;6.10;2.35;;;8.50;99.90;;;;;;2065815;28;20042;-76
2023/11/04 04:15:25;;;;;;;7.38;2.42;;;8.50;99.90;;;;;;2061969;28;20038;-78
2023/11/04 04:16:25;;;;;;;5.35;2.17;;;8.50;99.90;;;;;;2065751;28;20065;-77
2023/11/04 04:17:27;;;;;;;6.55;2.20;;;8.50;99.90;;;;;;2057986;28;20785;-77
2023/11/04 04:18:27;;;;;;;6.53;2.28;;;8.50;99.90;;;;;;2057985;28;20042;-76
2023/11/04 04:19:28;;;;;;;9.30;2.33;;;8.50;99.90;;;;;;2062536;28;20587;-77
2023/11/04 04:20:29;;;;;;;6.85;2.30;;;8.40;99.90;;;;;;2062629;28;20114;-76
2023/11/04 04:21:30;;;;;;;6.50;2.30;;;8.40;99.90;;;;;;2061296;28;20057;-78
2023/11/04 04:22:30;;;;;;;7.90;2.53;;;8.40;99.90;;;;;;2054302;28;20309;-78
2023/11/04 04:23:31;;;;;;;8.63;2.28;;;8.40;99.90;;;;;;2057857;28;20434;-76
2023/11/04 04:24:31;;;;;;;10.68;2.53;;;8.40;99.90;;;;;;2062007;28;20030;-78
2023/11/04 04:25:32;;;;;;;6.18;2.75;;;8.40;99.90;;;;;;2063350;28;20504;-77
2023/11/04 04:26:32;;;;;;;6.75;2.22;;;8.40;99.90;;;;;;2062343;28;20432;-77
2023/11/04 04:27:33;;;;;;;6.35;2.03;;;8.40;99.90;;;;;;2066645;28;20408;-77
2023/11/04 04:28:35;;;;;;;7.05;2.33;;;8.30;99.90;;;;;;2065762;28;20230;-77
2023/11/04 04:29:36;;;;;;;9.15;2.40;;;8.30;99.90;;;;;;2062319;28;20274;-77
2023/11/04 04:30:37;;;;;;;5.80;2.05;;;8.30;99.90;;;;;;2062859;28;20385;-77
2023/11/04 04:31:37;;;;;;;8.05;2.20;;;8.30;99.90;;;;;;2066141;28;20096;-77
2023/11/04 04:32:38;;;;;;;6.47;2.20;;;8.30;99.90;;;;;;2054957;28;20052;-77
2023/11/04 04:33:38;;;;;;;6.65;2.38;;;8.30;99.90;;;;;;2053958;28;20033;-77
2023/11/04 04:34:39;;;;;;;8.15;2.50;;;8.30;99.90;;;;;;2065674;28;20038;-77
2023/11/04 04:35:39;;;;;;;5.50;2.40;;;8.30;99.90;;;;;;2062874;28;20031;-78
2023/11/04 04:36:41;;;;;;;8.48;2.33;;;8.30;99.90;;;;;;2058767;28;20022;-77
2023/11/04 04:37:41;;;;;;;7.60;2.47;;;8.30;99.90;;;;;;2062003;28;20225;-76
2023/11/04 04:38:42;;;;;;;6.43;2.15;;;8.30;99.90;;;;;;2059493;28;20035;-76
2023/11/04 04:39:42;;;;;;;4.00;2.10;;;8.20;99.90;;;;;;2059934;28;20030;-76
2023/11/04 04:40:44;;;;;;;5.80;2.13;;;8.30;99.90;;;;;;2061299;28;20503;-76
2023/11/04 04:41:45;;;;;;;6.70;2.45;;;8.30;99.90;;;;;;2064473;28;20077;-78
2023/11/04 04:42:45;;;;;;;8.80;2.38;;;8.30;99.90;;;;;;2066429;28;20030;-78
2023/11/04 04:43:46;;;;;;;5.85;2.15;;;8.20;99.90;;;;;;2053586;28;20296;-78
2023/11/04 04:44:46;;;;;;;7.07;2.28;;;8.30;99.90;;;;;;2058124;28;20022;-78
2023/11/04 04:45:47;;;;;;;6.28;2.42;;;8.30;99.90;;;;;;2063733;28;20478;-78
2023/11/04 04:46:47;;;;;;;8.55;2.20;;;8.20;99.90;;;;;;2064108;28;20045;-78
2023/11/04 04:47:48;;;;;;;6.50;2.30;;;8.20;99.90;;;;;;2064379;28;20026;-78
2023/11/04 04:48:49;;;;;;;4.55;2.17;;;8.20;99.90;;;;;;2061057;28;20042;-78
2023/11/04 04:49:49;;;;;;;7.45;2.38;;;8.20;99.90;;;;;;2065890;28;20068;-77
2023/11/04 04:50:50;;;;;;;9.18;2.60;;;8.20;99.90;;;;;;2057813;28;20034;-78
2023/11/04 04:51:50;;;;;;;7.70;2.20;;;8.20;99.90;;;;;;2056838;28;20452;-77
2023/11/04 04:52:51;;;;;;;5.60;2.00;;;8.20;99.90;;;;;;2057992;28;20543;-76
2023/11/04 04:53:51;;;;;;;5.75;2.20;;;8.20;99.90;;;;;;2058316;28;20389;-76
2023/11/04 04:54:52;;;;;;;8.85;2.47;;;8.20;99.90;;;;;;2066017;28;20481;-76
2023/11/04 04:55:53;;;;;;;6.35;2.65;;;8.20;99.90;;;;;;2066050;28;20557;-76
2023/11/04 04:56:54;;;;;;;5.50;2.33;;;8.20;99.90;;;;;;2054028;28;20037;-76
2023/11/04 04:57:55;;;;;;;5.68;2.38;;;8.20;99.90;;;;;;2057785;28;20089;-75
2023/11/04 04:58:55;;;;;;;6.93;2.42;;;8.30;99.90;;;;;;2057984;28;20112;-77
2023/11/04 04:59:56;;;;;;;8.57;2.63;;;8.30;99.90;;;;;;2062671;28;20026;-77
2023/11/04 05:00:57;;;;;;;6.53;2.25;;;8.30;99.90;;;;;;2065737;28;20480;-77
2023/11/04 05:01:57;;;;;;;6.50;2.42;;;8.30;99.90;;;;;;2062632;28;20036;-77
2023/11/04 05:02:59;;;;;;;4.93;2.22;;;8.30;99.90;;;;;;2062540;28;20030;-76
2023/11/04 05:03:59;;;;;;;6.68;2.47;;;8.30;99.90;;;;;;2065505;28;20034;-76
2023/11/04 05:05:00;;;;;;;8.65;2.40;;;8.30;99.90;;;;;;2062350;28;20117;-76
2023/11/04 05:06:00;;;;;;;6.55;2.28;;;8.30;99.90;;;;;;2059313;28;20026;-76
2023/11/04 05:07:01;;;;;;;7.82;2.33;;;8.30;99.90;;;;;;2053446;28;20031;-76
2023/11/04 05:08:02;;;;;;;7.25;2.15;;;8.30;99.90;;;;;;2057596;28;20030;-77
2023/11/04 05:09:04;;;;;;;6.90;2.20;;;8.30;99.90;;;;;;2065742;28;20037;-77
2023/11/04 05:10:05;;;;;;;5.70;2.22;;;8.30;99.90;;;;;;2062537;28;20027;-75
2023/11/04 05:11:08;;;;;;;4.57;1.90;;;8.20;99.90;;;;;;2062466;28;20050;-76
2023/11/04 05:12:09;;;;;;;6.05;2.25;;;8.30;99.90;;;;;;2066643;28;20504;-77
2023/11/04 05:13:10;;;;;;;8.50;2.30;;;8.30;99.90;;;;;;2065471;28;20026;-78
2023/11/04 05:14:10;;;;;;;6.22;2.28;;;8.30;99.90;;;;;;2061927;28;20029;-77
2023/11/04 05:15:11;;;;;;;5.28;2.00;;;8.20;99.90;;;;;;2067285;28;20044;-77
2023/11/04 05:16:11;;;;;;;5.40;2.17;;;8.20;99.90;;;;;;2062772;28;20022;-77
2023/11/04 05:17:12;;;;;;;8.77;2.30;;;8.20;99.90;;;;;;2060174;28;20472;-77
2023/11/04 05:18:13;;;;;;;4.35;2.05;;;8.20;99.90;;;;;;2068168;28;20554;-76
2023/11/04 05:19:13;;;;;;;6.00;1.98;;;8.20;99.90;;;;;;2064751;28;20032;-76
2023/11/04 05:20:15;;;;;;;6.43;2.35;;;8.20;99.90;;;;;;2059017;28;20041;-76
2023/11/04 05:21:18;;;;;;;8.70;2.45;;;8.20;99.90;;;;;;2057766;28;20096;-75